createdAt,value
2023-01-12T00:00:20.031Z,0
2023-01-12T00:01:19.467Z,0
2023-01-12T00:02:20.106Z,0
2023-01-12T00:03:19.770Z,0
2023-01-12T00:04:20.018Z,0
2023-01-12T00:05:19.792Z,0
2023-01-12T00:06:19.805Z,0
2023-01-12T00:07:19.882Z,0
2023-01-12T00:08:19.821Z,0
2023-01-12T00:09:19.863Z,0
2023-01-12T00:10:19.858Z,0
2023-01-12T00:11:19.914Z,0
2023-01-12T00:12:19.443Z,0
2023-01-12T00:13:19.957Z,0
2023-01-12T00:14:19.955Z,0
2023-01-12T00:15:19.954Z,0
2023-01-12T00:16:20.188Z,0
2023-01-12T00:17:19.978Z,0
2023-01-12T00:18:20.223Z,0
2023-01-12T00:19:20.298Z,0
2023-01-12T00:20:19.764Z,0
2023-01-12T00:21:20.253Z,0
2023-01-12T00:22:19.941Z,0
2023-01-12T00:23:19.944Z,0
2023-01-12T00:24:20.011Z,0
2023-01-12T00:25:19.999Z,0
2023-01-12T00:26:20.111Z,0
2023-01-12T00:27:20.248Z,0
2023-01-12T00:28:20.259Z,0
2023-01-12T00:29:20.281Z,0
2023-01-12T00:30:19.699Z,0
2023-01-12T00:31:20.230Z,0
2023-01-12T00:32:19.734Z,0
2023-01-12T00:33:20.221Z,0
2023-01-12T00:34:20.276Z,0
2023-01-12T00:35:19.993Z,0
2023-01-12T00:36:20.282Z,0
2023-01-12T00:37:20.297Z,0
2023-01-12T00:38:20.299Z,0
2023-01-12T00:39:20.069Z,0
2023-01-12T00:40:20.311Z,0
2023-01-12T00:41:20.334Z,0
2023-01-12T00:42:19.834Z,0
2023-01-12T00:43:20.442Z,0
2023-01-12T00:44:20.446Z,0
2023-01-12T00:45:20.163Z,0
2023-01-12T00:46:20.541Z,0
2023-01-12T00:47:20.430Z,0
2023-01-12T00:48:20.470Z,0
2023-01-12T00:49:20.465Z,0
2023-01-12T00:50:23.582Z,0
2023-01-12T00:51:19.959Z,0
2023-01-12T00:52:35.580Z,0
2023-01-12T00:53:20.513Z,0
2023-01-12T00:54:20.260Z,0
2023-01-12T00:55:20.564Z,0
2023-01-12T00:56:20.585Z,0
2023-01-12T00:57:20.577Z,0
2023-01-12T00:58:20.592Z,0
2023-01-12T00:59:20.122Z,0
2023-01-12T01:00:20.674Z,0
2023-01-12T01:01:21.049Z,0
2023-01-12T01:02:21.336Z,0
2023-01-12T01:03:20.406Z,0
2023-01-12T01:04:21.157Z,0
2023-01-12T01:05:20.711Z,0
2023-01-12T01:06:20.512Z,0
2023-01-12T01:07:20.913Z,0
2023-01-12T01:08:20.732Z,0
2023-01-12T01:09:20.512Z,0
2023-01-12T01:10:20.774Z,0
2023-01-12T01:11:20.785Z,0
2023-01-12T01:12:20.311Z,0
2023-01-12T01:13:20.602Z,0
2023-01-12T01:14:20.616Z,0
2023-01-12T01:15:20.896Z,0
2023-01-12T01:16:20.868Z,0
2023-01-12T01:17:20.733Z,0
2023-01-12T01:18:20.648Z,0
2023-01-12T01:19:20.957Z,0
2023-01-12T01:20:20.914Z,0
2023-01-12T01:21:20.983Z,0
2023-01-12T01:22:20.744Z,0
2023-01-12T01:23:20.992Z,0
2023-01-12T01:24:21.004Z,0
2023-01-12T01:25:21.015Z,0
2023-01-12T01:26:21.020Z,0
2023-01-12T01:27:21.057Z,0
2023-01-12T01:28:20.274Z,0
2023-01-12T01:29:21.100Z,0
2023-01-12T01:30:21.083Z,0
2023-01-12T01:31:21.367Z,0
2023-01-12T01:32:21.166Z,0
2023-01-12T01:33:20.887Z,0
2023-01-12T01:34:21.152Z,0
2023-01-12T01:35:21.160Z,0
2023-01-12T01:36:21.483Z,0
2023-01-12T01:37:21.728Z,0
2023-01-12T01:38:21.158Z,0
2023-01-12T01:39:21.226Z,0
2023-01-12T01:40:20.973Z,0
2023-01-12T01:41:21.015Z,0
2023-01-12T01:42:21.021Z,0
2023-01-12T01:43:21.285Z,0
2023-01-12T01:44:21.044Z,0
2023-01-12T01:45:21.332Z,0
2023-01-12T01:46:21.666Z,0
2023-01-12T01:47:21.130Z,0
2023-01-12T01:48:21.413Z,0
2023-01-12T01:49:21.403Z,0
2023-01-12T01:50:21.183Z,0
2023-01-12T01:51:21.405Z,0
2023-01-12T01:52:20.921Z,0
2023-01-12T01:53:21.208Z,0
2023-01-12T01:54:21.471Z,0
2023-01-12T01:55:21.249Z,0
2023-01-12T01:56:21.487Z,0
2023-01-12T01:57:21.272Z,0
2023-01-12T01:58:21.521Z,0
2023-01-12T01:59:21.538Z,0
2023-01-12T02:00:21.288Z,0
2023-01-12T02:01:22.056Z,0
2023-01-12T02:02:21.747Z,0
2023-01-12T02:03:21.370Z,0
2023-01-12T02:04:21.835Z,0
2023-01-12T02:05:21.660Z,0
2023-01-12T02:06:21.634Z,0
2023-01-12T02:07:21.411Z,0
2023-01-12T02:08:20.899Z,0
2023-01-12T02:09:21.697Z,0
2023-01-12T02:10:21.498Z,0
2023-01-12T02:11:21.455Z,0
2023-01-12T02:12:21.478Z,0
2023-01-12T02:13:21.740Z,0
2023-01-12T02:14:21.785Z,0
2023-01-12T02:15:21.828Z,0
2023-01-12T02:16:21.977Z,0
2023-01-12T02:17:21.577Z,0
2023-01-12T02:18:21.829Z,0
2023-01-12T02:19:21.885Z,0
2023-01-12T02:20:21.892Z,0
2023-01-12T02:21:21.656Z,0
2023-01-12T02:22:21.908Z,0
2023-01-12T02:23:21.895Z,0
2023-01-12T02:24:21.915Z,0
2023-01-12T02:25:21.701Z,0
2023-01-12T02:26:21.963Z,0
2023-01-12T02:27:21.960Z,0
2023-01-12T02:28:21.758Z,0
2023-01-12T02:29:21.740Z,0
2023-01-12T02:30:21.771Z,0
2023-01-12T02:31:22.260Z,0
2023-01-12T02:32:22.072Z,0
2023-01-12T02:33:21.806Z,0
2023-01-12T02:34:22.071Z,0
2023-01-12T02:35:22.111Z,0
2023-01-12T02:36:22.153Z,0
2023-01-12T02:37:21.903Z,0
2023-01-12T02:38:22.160Z,0
2023-01-12T02:39:21.899Z,0
2023-01-12T02:40:21.922Z,0
2023-01-12T02:41:22.161Z,0
2023-01-12T02:42:22.239Z,0
2023-01-12T02:43:22.271Z,0
2023-01-12T02:44:21.970Z,0
2023-01-12T02:45:22.234Z,0
2023-01-12T02:46:22.426Z,0
2023-01-12T02:47:22.282Z,0
2023-01-12T02:48:22.292Z,0
2023-01-12T02:49:22.334Z,0
2023-01-12T02:50:22.075Z,0
2023-01-12T02:51:22.418Z,0
2023-01-12T02:52:22.404Z,0
2023-01-12T02:53:22.474Z,0
2023-01-12T02:54:22.108Z,0
2023-01-12T02:55:22.386Z,0
2023-01-12T02:56:22.465Z,0
2023-01-12T02:57:22.449Z,0
2023-01-12T02:58:22.543Z,0
2023-01-12T02:59:22.495Z,0
2023-01-12T03:00:22.517Z,0
2023-01-12T03:01:22.988Z,0
2023-01-12T03:02:22.245Z,0
2023-01-12T03:03:22.763Z,0
2023-01-12T03:04:22.649Z,0
2023-01-12T03:05:22.565Z,0
2023-01-12T03:06:22.562Z,0
2023-01-12T03:07:22.336Z,0
2023-01-12T03:08:22.451Z,0
2023-01-12T03:09:22.679Z,0
2023-01-12T03:10:22.115Z,0
2023-01-12T03:11:22.654Z,0
2023-01-12T03:12:22.684Z,0
2023-01-12T03:13:22.677Z,0
2023-01-12T03:14:22.702Z,0
2023-01-12T03:15:22.721Z,0
2023-01-12T03:16:23.081Z,0
2023-01-12T03:17:22.478Z,0
2023-01-12T03:18:22.500Z,0
2023-01-12T03:19:22.774Z,0
2023-01-12T03:20:22.297Z,0
2023-01-12T03:21:22.820Z,0
2023-01-12T03:22:22.547Z,0
2023-01-12T03:23:22.865Z,0
2023-01-12T03:24:22.882Z,0
2023-01-12T03:25:22.886Z,0
2023-01-12T03:26:22.878Z,0
2023-01-12T03:27:22.910Z,0
2023-01-12T03:28:22.907Z,0
2023-01-12T03:29:22.917Z,0
2023-01-12T03:30:22.991Z,0
2023-01-12T03:31:23.125Z,0
2023-01-12T03:32:22.727Z,0
2023-01-12T03:33:22.720Z,0
2023-01-12T03:34:22.482Z,0
2023-01-12T03:35:23.030Z,0
2023-01-12T03:36:22.765Z,0
2023-01-12T03:37:23.046Z,0
2023-01-12T03:38:22.812Z,0
2023-01-12T03:39:23.109Z,0
2023-01-12T03:40:23.139Z,0
2023-01-12T03:41:23.140Z,0
2023-01-12T03:42:22.866Z,0
2023-01-12T03:43:22.935Z,0
2023-01-12T03:44:22.958Z,0
2023-01-12T03:45:22.947Z,0
2023-01-12T03:46:23.296Z,0
2023-01-12T03:47:23.262Z,0
2023-01-12T03:48:22.947Z,0
2023-01-12T03:49:22.996Z,0
2023-01-12T03:50:22.986Z,0
2023-01-12T03:51:23.003Z,0
2023-01-12T03:52:23.266Z,0
2023-01-12T03:53:23.294Z,0
2023-01-12T03:54:23.077Z,0
2023-01-12T03:55:23.089Z,0
2023-01-12T03:56:23.099Z,0
2023-01-12T03:57:23.384Z,0
2023-01-12T03:58:23.369Z,0
2023-01-12T03:59:23.375Z,0
2023-01-12T04:00:23.419Z,0
2023-01-12T04:01:23.420Z,0
2023-01-12T04:02:23.212Z,0
2023-01-12T04:03:23.688Z,0
2023-01-12T04:04:23.508Z,0
2023-01-12T04:05:23.474Z,0
2023-01-12T04:06:23.239Z,0
2023-01-12T04:07:23.474Z,0
2023-01-12T04:08:23.290Z,0
2023-01-12T04:09:23.283Z,0
2023-01-12T04:10:23.315Z,0
2023-01-12T04:11:23.600Z,0
2023-01-12T04:12:23.343Z,0
2023-01-12T04:13:23.617Z,0
2023-01-12T04:14:23.618Z,0
2023-01-12T04:15:23.379Z,0
2023-01-12T04:16:23.729Z,0
2023-01-12T04:17:23.686Z,0
2023-01-12T04:18:23.724Z,0
2023-01-12T04:19:23.430Z,0
2023-01-12T04:20:24.242Z,0
2023-01-12T04:21:23.467Z,0
2023-01-12T04:22:24.086Z,0
2023-01-12T04:23:23.755Z,0
2023-01-12T04:24:23.843Z,0
2023-01-12T04:25:23.523Z,0
2023-01-12T04:26:23.575Z,0
2023-01-12T04:27:23.599Z,0
2023-01-12T04:28:24.077Z,0
2023-01-12T04:29:23.342Z,0
2023-01-12T04:30:24.060Z,0
2023-01-12T04:31:23.860Z,0
2023-01-12T04:32:24.074Z,0
2023-01-12T04:33:23.654Z,0
2023-01-12T04:34:23.706Z,0
2023-01-12T04:35:24.550Z,0
2023-01-12T04:36:24.122Z,0
2023-01-12T04:37:24.118Z,0
2023-01-12T04:38:24.085Z,0
2023-01-12T04:39:24.102Z,0
2023-01-12T04:40:23.776Z,0
2023-01-12T04:41:23.781Z,0
2023-01-12T04:42:23.774Z,0
2023-01-12T04:43:23.838Z,0
2023-01-12T04:44:24.147Z,0
2023-01-12T04:45:24.122Z,0
2023-01-12T04:46:24.106Z,0
2023-01-12T04:47:24.105Z,0
2023-01-12T04:48:26.383Z,0
2023-01-12T04:49:24.185Z,0
2023-01-12T04:50:24.265Z,0
2023-01-12T04:51:24.175Z,0
2023-01-12T04:52:24.105Z,0
2023-01-12T04:53:24.537Z,0
2023-01-12T04:54:24.225Z,0
2023-01-12T04:55:24.268Z,0
2023-01-12T04:56:24.090Z,0
2023-01-12T04:57:24.317Z,0
2023-01-12T04:58:24.157Z,0
2023-01-12T04:59:24.349Z,0
2023-01-12T05:00:24.371Z,0
2023-01-12T05:01:25.050Z,0
2023-01-12T05:02:24.348Z,0
2023-01-12T05:03:24.363Z,0
2023-01-12T05:04:24.492Z,0
2023-01-12T05:05:23.896Z,0
2023-01-12T05:06:24.425Z,0
2023-01-12T05:07:24.175Z,0
2023-01-12T05:08:24.200Z,0
2023-01-12T05:09:27.183Z,0
2023-01-12T05:10:24.229Z,0
2023-01-12T05:11:24.501Z,0
2023-01-12T05:12:24.503Z,0
2023-01-12T05:13:24.498Z,0
2023-01-12T05:14:24.264Z,0
2023-01-12T05:15:24.580Z,0
2023-01-12T05:16:25.049Z,0
2023-01-12T05:17:24.344Z,0
2023-01-12T05:18:24.353Z,0
2023-01-12T05:19:24.638Z,0
2023-01-12T05:20:24.610Z,0
2023-01-12T05:21:24.728Z,0
2023-01-12T05:22:24.696Z,0
2023-01-12T05:23:24.675Z,0
2023-01-12T05:24:24.425Z,0
2023-01-12T05:25:24.688Z,0
2023-01-12T05:26:24.724Z,0
2023-01-12T05:27:24.208Z,0
2023-01-12T05:28:24.491Z,0
2023-01-12T05:29:24.508Z,0
2023-01-12T05:30:24.799Z,0
2023-01-12T05:31:24.706Z,0
2023-01-12T05:32:24.574Z,0
2023-01-12T05:33:24.852Z,0
2023-01-12T05:34:24.879Z,0
2023-01-12T05:35:24.885Z,0
2023-01-12T05:36:26.760Z,0
2023-01-12T05:37:24.645Z,0
2023-01-12T05:38:24.925Z,0
2023-01-12T05:39:24.663Z,0
2023-01-12T05:40:24.934Z,0
2023-01-12T05:41:24.682Z,0
2023-01-12T05:42:25.000Z,0
2023-01-12T05:43:25.006Z,0
2023-01-12T05:44:25.001Z,0
2023-01-12T05:45:25.006Z,0
2023-01-12T05:46:24.857Z,0
2023-01-12T05:47:24.861Z,0
2023-01-12T05:48:24.820Z,0
2023-01-12T05:49:25.125Z,0
2023-01-12T05:50:25.087Z,0
2023-01-12T05:51:25.130Z,0
2023-01-12T05:52:25.133Z,0
2023-01-12T05:53:25.109Z,0
2023-01-12T05:54:25.165Z,0
2023-01-12T05:55:24.934Z,0
2023-01-12T05:56:25.231Z,0
2023-01-12T05:57:25.213Z,0
2023-01-12T05:58:24.943Z,0
2023-01-12T05:59:24.961Z,0
2023-01-12T06:00:25.222Z,0
2023-01-12T06:01:25.696Z,0
2023-01-12T06:02:25.170Z,0
2023-01-12T06:03:27.807Z,0
2023-01-12T06:04:26.031Z,0
2023-01-12T06:05:24.820Z,0
2023-01-12T06:06:25.329Z,0
2023-01-12T06:07:25.400Z,0
2023-01-12T06:08:25.351Z,0
2023-01-12T06:09:25.376Z,0
2023-01-12T06:10:25.442Z,0
2023-01-12T06:11:25.403Z,0
2023-01-12T06:12:25.160Z,0
2023-01-12T06:13:25.581Z,0
2023-01-12T06:14:25.481Z,0
2023-01-12T06:15:25.472Z,0
2023-01-12T06:16:25.701Z,0
2023-01-12T06:17:25.253Z,0
2023-01-12T06:18:25.500Z,0
2023-01-12T06:19:25.555Z,0
2023-01-12T06:20:25.613Z,0
2023-01-12T06:21:25.347Z,0
2023-01-12T06:22:25.563Z,0
2023-01-12T06:23:39.700Z,0
2023-01-12T06:24:25.620Z,0
2023-01-12T06:25:25.351Z,0
2023-01-12T06:26:25.693Z,0
2023-01-12T06:27:25.753Z,0
2023-01-12T06:28:25.435Z,0
2023-01-12T06:29:25.673Z,0
2023-01-12T06:30:25.703Z,0
2023-01-12T06:31:25.563Z,0
2023-01-12T06:32:25.481Z,0
2023-01-12T06:33:25.507Z,0
2023-01-12T06:34:25.784Z,0
2023-01-12T06:35:27.187Z,0
2023-01-12T06:36:25.571Z,0
2023-01-12T06:37:25.853Z,0
2023-01-12T06:38:26.183Z,0
2023-01-12T06:39:25.598Z,0
2023-01-12T06:40:25.325Z,0
2023-01-12T06:41:25.616Z,0
2023-01-12T06:42:25.637Z,0
2023-01-12T06:43:25.893Z,0
2023-01-12T06:44:25.929Z,0
2023-01-12T06:45:25.933Z,0
2023-01-12T06:46:26.243Z,0
2023-01-12T06:47:25.954Z,0
2023-01-12T06:48:26.001Z,0
2023-01-12T06:49:26.005Z,0
2023-01-12T06:50:25.498Z,0
2023-01-12T06:51:25.785Z,0
2023-01-12T06:52:26.067Z,0
2023-01-12T06:53:26.076Z,0
2023-01-12T06:54:26.389Z,0
2023-01-12T06:55:26.077Z,0
2023-01-12T06:56:26.120Z,0
2023-01-12T06:57:25.852Z,0
2023-01-12T06:58:26.172Z,0
2023-01-12T06:59:26.163Z,0
2023-01-12T07:00:25.919Z,0
2023-01-12T07:01:27.061Z,0
2023-01-12T07:02:26.239Z,0
2023-01-12T07:03:26.256Z,0
2023-01-12T07:04:26.838Z,0
2023-01-12T07:05:26.235Z,0
2023-01-12T07:06:26.010Z,0
2023-01-12T07:07:26.031Z,0
2023-01-12T07:08:26.178Z,0
2023-01-12T07:09:26.319Z,0
2023-01-12T07:10:26.076Z,0
2023-01-12T07:11:26.343Z,0
2023-01-12T07:12:26.368Z,0
2023-01-12T07:13:25.845Z,0
2023-01-12T07:14:26.419Z,0
2023-01-12T07:15:26.426Z,0
2023-01-12T07:16:26.969Z,0
2023-01-12T07:17:26.412Z,0
2023-01-12T07:18:26.428Z,0
2023-01-12T07:19:26.482Z,0
2023-01-12T07:20:26.211Z,0
2023-01-12T07:21:25.702Z,0
2023-01-12T07:22:26.531Z,0
2023-01-12T07:23:26.594Z,0
2023-01-12T07:24:26.332Z,0
2023-01-12T07:25:26.617Z,0
2023-01-12T07:26:26.335Z,0
2023-01-12T07:27:26.563Z,0
2023-01-12T07:28:26.345Z,0
2023-01-12T07:29:26.815Z,0
2023-01-12T07:30:26.881Z,0
2023-01-12T07:31:26.631Z,0
2023-01-12T07:32:26.846Z,0
2023-01-12T07:33:26.395Z,0
2023-01-12T07:34:26.600Z,0
2023-01-12T07:35:26.442Z,0
2023-01-12T07:36:26.874Z,0
2023-01-12T07:37:26.604Z,0
2023-01-12T07:38:26.873Z,0
2023-01-12T07:39:26.662Z,0
2023-01-12T07:40:26.792Z,0
2023-01-12T07:41:26.889Z,0
2023-01-12T07:42:26.847Z,0
2023-01-12T07:43:26.567Z,0
2023-01-12T07:44:26.838Z,0
2023-01-12T07:45:26.822Z,0
2023-01-12T07:46:27.121Z,0
2023-01-12T07:47:26.883Z,0
2023-01-12T07:48:26.893Z,0
2023-01-12T07:49:26.897Z,0
2023-01-12T07:50:27.119Z,0
2023-01-12T07:51:26.939Z,4
2023-01-12T07:52:26.837Z,4
2023-01-12T07:53:26.845Z,4
2023-01-12T07:54:26.919Z,0
2023-01-12T07:55:26.888Z,4
2023-01-12T07:56:27.091Z,0
2023-01-12T07:57:26.888Z,0
2023-01-12T07:58:27.038Z,4
2023-01-12T07:59:27.057Z,4
2023-01-12T08:00:27.062Z,4
2023-01-12T08:01:27.374Z,4
2023-01-12T08:02:27.402Z,4
2023-01-12T08:03:26.857Z,4
2023-01-12T08:04:27.269Z,4
2023-01-12T08:05:27.342Z,4
2023-01-12T08:06:27.149Z,4
2023-01-12T08:07:27.192Z,0
2023-01-12T08:08:26.917Z,0
2023-01-12T08:09:26.941Z,0
2023-01-12T08:10:27.225Z,0
2023-01-12T08:11:27.268Z,4
2023-01-12T08:12:27.301Z,4
2023-01-12T08:13:27.339Z,4
2023-01-12T08:14:27.330Z,4
2023-01-12T08:15:27.047Z,4
2023-01-12T08:16:27.577Z,4
2023-01-12T08:17:27.123Z,4
2023-01-12T08:18:27.368Z,4
2023-01-12T08:19:27.118Z,4
2023-01-12T08:20:27.433Z,4
2023-01-12T08:21:27.402Z,8
2023-01-12T08:22:27.404Z,4
2023-01-12T08:23:27.435Z,4
2023-01-12T08:24:27.191Z,4
2023-01-12T08:25:27.216Z,4
2023-01-12T08:26:27.481Z,4
2023-01-12T08:27:27.533Z,8
2023-01-12T08:28:27.545Z,8
2023-01-12T08:29:27.689Z,8
2023-01-12T08:30:27.550Z,8
2023-01-12T08:31:27.827Z,8
2023-01-12T08:32:27.567Z,8
2023-01-12T08:33:27.650Z,8
2023-01-12T08:34:27.620Z,8
2023-01-12T08:35:27.702Z,4
2023-01-12T08:36:27.704Z,4
2023-01-12T08:37:28.012Z,8
2023-01-12T08:38:27.672Z,4
2023-01-12T08:39:27.147Z,8
2023-01-12T08:40:27.504Z,8
2023-01-12T08:41:27.724Z,8
2023-01-12T08:42:31.665Z,8
2023-01-12T08:43:27.766Z,8
2023-01-12T08:44:27.773Z,8
2023-01-12T08:45:27.816Z,8
2023-01-12T08:46:27.639Z,12
2023-01-12T08:47:27.955Z,8
2023-01-12T08:48:27.795Z,12
2023-01-12T08:49:29.442Z,12
2023-01-12T08:50:27.861Z,12
2023-01-12T08:51:27.832Z,12
2023-01-12T08:52:27.906Z,12
2023-01-12T08:53:27.929Z,12
2023-01-12T08:54:27.664Z,12
2023-01-12T08:55:27.649Z,12
2023-01-12T08:56:27.679Z,12
2023-01-12T08:57:27.977Z,12
2023-01-12T08:58:28.117Z,12
2023-01-12T08:59:27.540Z,12
2023-01-12T09:00:28.137Z,12
2023-01-12T09:01:28.635Z,12
2023-01-12T09:02:28.387Z,12
2023-01-12T09:03:27.759Z,8
2023-01-12T09:04:27.982Z,12
2023-01-12T09:05:28.071Z,8
2023-01-12T09:06:28.143Z,8
2023-01-12T09:07:28.156Z,12
2023-01-12T09:08:28.129Z,12
2023-01-12T09:09:28.134Z,12
2023-01-12T09:10:28.032Z,12
2023-01-12T09:11:27.660Z,12
2023-01-12T09:12:30.262Z,8
2023-01-12T09:13:28.202Z,8
2023-01-12T09:14:27.964Z,8
2023-01-12T09:15:28.264Z,8
2023-01-12T09:16:28.438Z,8
2023-01-12T09:17:28.288Z,12
2023-01-12T09:18:28.360Z,12
2023-01-12T09:19:28.098Z,12
2023-01-12T09:20:28.372Z,12
2023-01-12T09:21:28.304Z,12
2023-01-12T09:22:28.113Z,12
2023-01-12T09:23:28.387Z,12
2023-01-12T09:24:28.376Z,12
2023-01-12T09:25:28.364Z,12
2023-01-12T09:26:28.431Z,12
2023-01-12T09:27:28.172Z,12
2023-01-12T09:28:28.445Z,12
2023-01-12T09:29:27.917Z,12
2023-01-12T09:30:28.294Z,12
2023-01-12T09:31:28.870Z,12
2023-01-12T09:32:41.066Z,12
2023-01-12T09:33:30.977Z,12
2023-01-12T09:34:28.101Z,12
2023-01-12T09:35:28.038Z,12
2023-01-12T09:36:28.562Z,12
2023-01-12T09:37:28.297Z,16
2023-01-12T09:38:28.373Z,16
2023-01-12T09:39:36.159Z,16
2023-01-12T09:40:28.705Z,16
2023-01-12T09:41:28.125Z,16
2023-01-12T09:42:28.375Z,16
2023-01-12T09:43:28.645Z,16
2023-01-12T09:44:28.406Z,16
2023-01-12T09:45:28.560Z,16
2023-01-12T09:46:28.199Z,16
2023-01-12T09:47:28.760Z,16
2023-01-12T09:48:29.752Z,20
2023-01-12T09:49:28.751Z,16
2023-01-12T09:50:28.923Z,16
2023-01-12T09:51:28.793Z,16
2023-01-12T09:52:28.796Z,16
2023-01-12T09:53:28.554Z,16
2023-01-12T09:54:28.611Z,16
2023-01-12T09:55:28.593Z,12
2023-01-12T09:56:28.340Z,12
2023-01-12T09:57:36.025Z,16
2023-01-12T09:58:28.903Z,12
2023-01-12T09:59:28.956Z,16
2023-01-12T10:00:28.447Z,16
2023-01-12T10:01:36.750Z,16
2023-01-12T10:02:28.900Z,20
2023-01-12T10:03:29.433Z,20
2023-01-12T10:04:29.245Z,28
2023-01-12T10:05:43.756Z,28
2023-01-12T10:06:29.037Z,28
2023-01-12T10:07:29.030Z,28
2023-01-12T10:08:28.794Z,28
2023-01-12T10:09:29.087Z,28
2023-01-12T10:10:29.174Z,24
2023-01-12T10:11:28.576Z,20
2023-01-12T10:12:29.121Z,24
2023-01-12T10:13:29.119Z,20
2023-01-12T10:14:28.875Z,20
2023-01-12T10:15:28.892Z,16
2023-01-12T10:16:29.121Z,16
2023-01-12T10:17:30.070Z,16
2023-01-12T10:18:28.957Z,12
2023-01-12T10:19:29.602Z,16
2023-01-12T10:20:29.153Z,12
2023-01-12T10:21:29.250Z,16
2023-01-12T10:22:29.074Z,12
2023-01-12T10:23:29.103Z,16
2023-01-12T10:24:29.076Z,16
2023-01-12T10:25:29.300Z,16
2023-01-12T10:26:29.385Z,16
2023-01-12T10:27:29.111Z,16
2023-01-12T10:28:29.363Z,16
2023-01-12T10:29:29.551Z,16
2023-01-12T10:30:29.607Z,16
2023-01-12T10:31:29.827Z,12
2023-01-12T10:32:43.382Z,16
2023-01-12T10:33:29.651Z,12
2023-01-12T10:34:29.335Z,16
2023-01-12T10:35:29.145Z,20
2023-01-12T10:36:29.693Z,20
2023-01-12T10:37:29.633Z,20
2023-01-12T10:38:29.572Z,16
2023-01-12T10:39:29.288Z,16
2023-01-12T10:40:29.659Z,16
2023-01-12T10:41:29.020Z,16
2023-01-12T10:42:29.401Z,16
2023-01-12T10:43:29.351Z,12
2023-01-12T10:44:29.606Z,12
2023-01-12T10:45:29.835Z,12
2023-01-12T10:46:29.688Z,12
2023-01-12T10:47:29.132Z,12
2023-01-12T10:48:29.407Z,12
2023-01-12T10:49:29.660Z,12
2023-01-12T10:50:29.726Z,12
2023-01-12T10:51:29.723Z,12
2023-01-12T10:52:29.776Z,12
2023-01-12T10:53:29.719Z,12
2023-01-12T10:54:29.270Z,12
2023-01-12T10:55:29.498Z,12
2023-01-12T10:56:29.531Z,16
2023-01-12T10:57:29.825Z,12
2023-01-12T10:58:29.851Z,12
2023-01-12T10:59:29.812Z,12
2023-01-12T11:00:32.378Z,16
2023-01-12T11:01:30.287Z,16
2023-01-12T11:02:30.371Z,16
2023-01-12T11:03:29.872Z,16
2023-01-12T11:04:29.832Z,16
2023-01-12T11:05:29.917Z,16
2023-01-12T11:06:29.437Z,12
2023-01-12T11:07:30.014Z,16
2023-01-12T11:08:30.054Z,16
2023-01-12T11:09:30.007Z,16
2023-01-12T11:10:30.033Z,12
2023-01-12T11:11:29.754Z,16
2023-01-12T11:12:32.262Z,12
2023-01-12T11:13:30.056Z,16
2023-01-12T11:14:31.732Z,12
2023-01-12T11:15:30.067Z,16
2023-01-12T11:16:30.268Z,16
2023-01-12T11:17:29.837Z,16
2023-01-12T11:18:30.106Z,16
2023-01-12T11:19:30.129Z,16
2023-01-12T11:20:29.874Z,12
2023-01-12T11:21:30.207Z,16
2023-01-12T11:22:30.183Z,12
2023-01-12T11:23:30.227Z,12
2023-01-12T11:24:30.265Z,16
2023-01-12T11:25:29.980Z,16
2023-01-12T11:26:30.004Z,16
2023-01-12T11:27:29.999Z,16
2023-01-12T11:28:30.316Z,16
2023-01-12T11:29:30.282Z,20
2023-01-12T11:30:30.277Z,20
2023-01-12T11:31:30.320Z,16
2023-01-12T11:32:30.327Z,20
2023-01-12T11:33:30.358Z,20
2023-01-12T11:34:30.167Z,24
2023-01-12T11:35:30.430Z,20
2023-01-12T11:36:30.452Z,20
2023-01-12T11:37:30.470Z,24
2023-01-12T11:38:30.447Z,20
2023-01-12T11:39:30.203Z,20
2023-01-12T11:40:30.546Z,20
2023-01-12T11:41:30.560Z,20
2023-01-12T11:42:30.501Z,20
2023-01-12T11:43:30.254Z,24
2023-01-12T11:44:30.575Z,24
2023-01-12T11:45:30.541Z,20
2023-01-12T11:46:30.515Z,20
2023-01-12T11:47:30.569Z,24
2023-01-12T11:48:30.576Z,24
2023-01-12T11:49:30.339Z,16
2023-01-12T11:50:30.664Z,20
2023-01-12T11:51:30.111Z,24
2023-01-12T11:52:30.643Z,24
2023-01-12T11:53:30.681Z,24
2023-01-12T11:54:30.453Z,28
2023-01-12T11:55:30.739Z,24
2023-01-12T11:56:30.761Z,24
2023-01-12T11:57:30.473Z,28
2023-01-12T11:58:30.779Z,24
2023-01-12T11:59:30.771Z,28
2023-01-12T12:00:30.784Z,28
2023-01-12T12:01:30.755Z,24
2023-01-12T12:02:31.173Z,24
2023-01-12T12:03:31.082Z,24
2023-01-12T12:04:30.917Z,24
2023-01-12T12:05:30.848Z,24
2023-01-12T12:06:30.608Z,24
2023-01-12T12:07:30.614Z,20
2023-01-12T12:08:30.886Z,20
2023-01-12T12:09:30.901Z,24
2023-01-12T12:10:31.153Z,20
2023-01-12T12:11:30.987Z,20
2023-01-12T12:12:31.034Z,20
2023-01-12T12:13:30.987Z,20
2023-01-12T12:14:31.012Z,20
2023-01-12T12:15:30.900Z,20
2023-01-12T12:16:31.045Z,20
2023-01-12T12:17:30.772Z,24
2023-01-12T12:18:30.822Z,20
2023-01-12T12:19:31.059Z,20
2023-01-12T12:20:30.823Z,16
2023-01-12T12:21:30.828Z,20
2023-01-12T12:22:30.841Z,20
2023-01-12T12:23:30.878Z,16
2023-01-12T12:24:30.858Z,20
2023-01-12T12:25:30.887Z,20
2023-01-12T12:26:30.664Z,20
2023-01-12T12:27:31.196Z,20
2023-01-12T12:28:30.990Z,20
2023-01-12T12:29:31.209Z,20
2023-01-12T12:30:30.786Z,20
2023-01-12T12:31:31.133Z,20
2023-01-12T12:32:31.255Z,24
2023-01-12T12:33:30.771Z,24
2023-01-12T12:34:31.043Z,20
2023-01-12T12:35:31.310Z,20
2023-01-12T12:36:31.349Z,24
2023-01-12T12:37:31.346Z,24
2023-01-12T12:38:31.347Z,20
2023-01-12T12:39:31.117Z,20
2023-01-12T12:40:31.380Z,20
2023-01-12T12:41:31.619Z,20
2023-01-12T12:42:31.493Z,20
2023-01-12T12:43:31.191Z,20
2023-01-12T12:44:31.525Z,20
2023-01-12T12:45:31.302Z,24
2023-01-12T12:46:31.814Z,24
2023-01-12T12:47:31.480Z,24
2023-01-12T12:48:31.247Z,24
2023-01-12T12:49:31.053Z,20
2023-01-12T12:50:31.580Z,20
2023-01-12T12:51:31.294Z,24
2023-01-12T12:52:31.294Z,24
2023-01-12T12:53:31.337Z,20
2023-01-12T12:54:31.610Z,24
2023-01-12T12:55:31.611Z,24
2023-01-12T12:56:31.658Z,20
2023-01-12T12:57:31.635Z,20
2023-01-12T12:58:31.414Z,24
2023-01-12T12:59:31.724Z,20
2023-01-12T13:00:31.891Z,20
2023-01-12T13:01:32.634Z,16
2023-01-12T13:02:31.930Z,16
2023-01-12T13:03:31.536Z,16
2023-01-12T13:04:32.049Z,12
2023-01-12T13:05:31.781Z,12
2023-01-12T13:06:31.600Z,12
2023-01-12T13:07:31.883Z,16
2023-01-12T13:08:31.557Z,12
2023-01-12T13:09:31.862Z,16
2023-01-12T13:10:32.504Z,16
2023-01-12T13:11:31.340Z,16
2023-01-12T13:12:32.015Z,12
2023-01-12T13:13:31.901Z,12
2023-01-12T13:14:31.900Z,12
2023-01-12T13:15:32.041Z,16
2023-01-12T13:16:31.724Z,12
2023-01-12T13:17:32.000Z,16
2023-01-12T13:18:31.454Z,12
2023-01-12T13:19:31.985Z,16
2023-01-12T13:20:33.585Z,16
2023-01-12T13:21:31.786Z,16
2023-01-12T13:22:32.066Z,16
2023-01-12T13:23:32.056Z,16
2023-01-12T13:24:31.785Z,16
2023-01-12T13:25:31.931Z,12
2023-01-12T13:26:32.394Z,16
2023-01-12T13:27:32.097Z,20
2023-01-12T13:28:32.317Z,16
2023-01-12T13:29:32.374Z,12
2023-01-12T13:30:32.117Z,16
2023-01-12T13:31:32.381Z,16
2023-01-12T13:32:31.909Z,16
2023-01-12T13:33:32.331Z,20
2023-01-12T13:34:32.113Z,16
2023-01-12T13:35:32.129Z,16
2023-01-12T13:36:32.329Z,16
2023-01-12T13:37:32.350Z,16
2023-01-12T13:38:32.354Z,16
2023-01-12T13:39:32.381Z,20
2023-01-12T13:40:32.091Z,20
2023-01-12T13:41:32.129Z,24
2023-01-12T13:42:32.080Z,20
2023-01-12T13:43:32.388Z,20
2023-01-12T13:44:32.406Z,20
2023-01-12T13:45:32.403Z,20
2023-01-12T13:46:32.392Z,20
2023-01-12T13:47:32.169Z,20
2023-01-12T13:48:32.694Z,16
2023-01-12T13:49:32.469Z,16
2023-01-12T13:50:32.194Z,16
2023-01-12T13:51:31.946Z,16
2023-01-12T13:52:32.478Z,16
2023-01-12T13:53:34.834Z,16
2023-01-12T13:54:32.297Z,16
2023-01-12T13:55:32.303Z,12
2023-01-12T13:56:32.603Z,12
2023-01-12T13:57:32.895Z,16
2023-01-12T13:58:32.703Z,16
2023-01-12T13:59:32.341Z,16
2023-01-12T14:00:32.610Z,16
2023-01-12T14:01:33.295Z,12
2023-01-12T14:02:32.969Z,12
2023-01-12T14:03:32.675Z,12
2023-01-12T14:04:32.989Z,12
2023-01-12T14:05:32.708Z,12
2023-01-12T14:06:32.439Z,12
2023-01-12T14:07:32.534Z,12
2023-01-12T14:08:51.471Z,12
2023-01-12T14:09:32.497Z,12
2023-01-12T14:10:32.263Z,12
2023-01-12T14:11:32.836Z,8
2023-01-12T14:12:32.545Z,8
2023-01-12T14:13:32.598Z,8
2023-01-12T14:14:32.816Z,12
2023-01-12T14:15:32.597Z,8
2023-01-12T14:16:33.163Z,12
2023-01-12T14:17:32.601Z,8
2023-01-12T14:18:32.620Z,8
2023-01-12T14:19:32.827Z,8
2023-01-12T14:20:33.020Z,8
2023-01-12T14:21:32.965Z,8
2023-01-12T14:22:32.940Z,8
2023-01-12T14:23:32.987Z,8
2023-01-12T14:24:32.726Z,8
2023-01-12T14:25:32.727Z,8
2023-01-12T14:26:33.054Z,4
2023-01-12T14:27:35.597Z,4
2023-01-12T14:28:33.078Z,4
2023-01-12T14:29:32.635Z,4
2023-01-12T14:30:32.816Z,8
2023-01-12T14:31:33.389Z,4
2023-01-12T14:32:33.082Z,8
2023-01-12T14:33:33.142Z,4
2023-01-12T14:34:33.187Z,8
2023-01-12T14:35:33.196Z,4